createdAt,value
2023-04-25T00:04:14.777Z,2.98
2023-04-25T00:07:29.714Z,2.96
2023-04-25T00:10:44.093Z,3.08
2023-04-25T00:13:50.416Z,3.43
2023-04-25T00:17:12.238Z,3.18
2023-04-25T00:35:28.052Z,3.29
2023-04-25T00:39:24.589Z,3.26
2023-04-25T00:41:41.521Z,3.48
2023-04-25T00:51:57.253Z,3.52
2023-04-25T00:58:56.132Z,3.90
2023-04-25T01:01:55.398Z,3.89
2023-04-25T01:05:03.436Z,3.93
2023-04-25T01:08:11.998Z,3.92
2023-04-25T01:11:18.486Z,4.19
2023-04-25T01:14:23.912Z,3.66
2023-04-25T01:17:40.901Z,3.59
2023-04-25T01:21:58.467Z,3.96
2023-04-25T01:24:14.235Z,3.82
2023-04-25T01:27:18.380Z,4.35
2023-04-25T01:30:24.856Z,4.03
2023-04-25T01:36:57.949Z,4.53
2023-04-25T01:40:36.434Z,4.61
2023-04-25T01:47:20.442Z,3.96
2023-04-25T01:50:25.212Z,3.33
2023-04-25T01:53:40.056Z,3.23
2023-04-25T01:56:50.688Z,3.56
2023-04-25T02:00:00.271Z,3.26
2023-04-25T02:03:14.686Z,3.37
2023-04-25T02:06:25.003Z,3.32
2023-04-25T02:09:33.676Z,3.42
2023-04-25T02:12:40.869Z,3.25
2023-04-25T02:16:32.357Z,3.37
2023-04-25T02:19:14.009Z,3.37
2023-04-25T02:22:19.788Z,3.41
2023-04-25T02:29:25.702Z,3.66
2023-04-25T02:32:24.040Z,3.93
2023-04-25T02:36:03.585Z,3.66
2023-04-25T02:39:20.664Z,2.94
2023-04-25T02:42:24.368Z,2.93
2023-04-25T02:49:24.808Z,3.23
2023-04-25T02:52:26.744Z,3.13
2023-04-25T02:58:59.474Z,2.93
2023-04-25T03:02:13.521Z,3.28
2023-04-25T03:19:19.302Z,3.86
2023-04-25T03:33:27.703Z,3.18
2023-04-25T03:36:32.264Z,3.55
2023-04-25T03:39:45.177Z,3.37
2023-04-25T03:43:36.602Z,3.36
2023-04-25T03:47:14.008Z,3.44
2023-04-25T03:53:13.244Z,3.35
2023-04-25T03:56:44.563Z,3.56
2023-04-25T03:59:46.363Z,3.43
2023-04-25T04:10:15.512Z,3.13
2023-04-25T04:13:20.861Z,2.89
2023-04-25T04:20:18.400Z,2.64
2023-04-25T04:23:21.130Z,2.70
2023-04-25T04:26:25.554Z,2.87
2023-04-25T04:29:30.119Z,2.78
2023-04-25T04:35:53.671Z,2.79
2023-04-25T04:49:11.676Z,2.72
2023-04-25T04:52:19.745Z,2.44
2023-04-25T04:55:38.773Z,2.64
2023-04-25T04:58:53.072Z,2.45
2023-04-25T05:08:48.509Z,2.80
2023-04-25T05:15:16.981Z,2.73
2023-04-25T05:39:11.546Z,3.04
2023-04-25T06:38:51.156Z,2.33
2023-04-25T06:41:55.757Z,2.37
2023-04-25T06:45:00.033Z,2.42
2023-04-25T06:48:04.130Z,2.21
2023-04-25T06:51:08.419Z,2.10
2023-04-25T06:54:12.341Z,2.24
2023-04-25T06:57:16.069Z,2.19
2023-04-25T07:00:19.951Z,2.11
2023-04-25T07:03:24.304Z,2.04
2023-04-25T07:06:28.960Z,2.42
2023-04-25T07:09:33.030Z,2.15
2023-04-25T07:12:36.978Z,1.93
2023-04-25T07:15:44.100Z,2.14
2023-04-25T07:18:51.074Z,2.19
2023-04-25T07:21:56.687Z,1.95
2023-04-25T07:25:01.084Z,2.11
2023-04-25T07:28:04.987Z,2.16
2023-04-25T07:31:31.547Z,1.93
2023-04-25T07:34:33.833Z,1.97
2023-04-25T07:37:37.661Z,1.79
2023-04-25T07:40:52.080Z,1.91
2023-04-25T07:43:56.046Z,2.35
2023-04-25T07:47:00.986Z,1.99
2023-04-25T07:50:06.873Z,2.23
2023-04-25T07:53:11.825Z,2.16
2023-04-25T07:56:15.742Z,2.08
2023-04-25T07:59:19.920Z,2.02
2023-04-25T08:02:24.242Z,2.16
2023-04-25T08:05:28.863Z,2.22
2023-04-25T08:08:33.031Z,1.97
2023-04-25T08:11:38.463Z,1.97
2023-04-25T08:14:42.864Z,1.87
2023-04-25T08:17:46.920Z,2.05
2023-04-25T08:20:50.894Z,2.27
2023-04-25T08:23:55.275Z,2.22
2023-04-25T08:27:00.950Z,2.19
2023-04-25T08:30:05.205Z,2.26
2023-04-25T08:33:09.740Z,2.27
2023-04-25T08:36:15.781Z,2.52
2023-04-25T08:39:23.126Z,2.58
2023-04-25T08:42:26.884Z,2.89
2023-04-25T08:45:30.887Z,3.08
2023-04-25T08:48:37.432Z,3.07
2023-04-25T08:51:42.995Z,2.97
2023-04-25T08:54:47.693Z,3.43
2023-04-25T08:57:51.967Z,2.88
2023-04-25T09:00:56.021Z,3.16
2023-04-25T09:04:00.496Z,3.55
2023-04-25T09:07:05.108Z,3.63
2023-04-25T09:10:09.221Z,3.74
2023-04-25T09:13:14.602Z,3.65
2023-04-25T09:16:18.740Z,3.54
2023-04-25T09:19:31.959Z,3.68
2023-04-25T09:22:42.775Z,1.63
2023-04-25T09:25:46.794Z,1.43
2023-04-25T09:28:50.440Z,1.50
2023-04-25T09:31:54.322Z,1.38
2023-04-25T09:34:58.919Z,1.50
2023-04-25T09:38:03.949Z,1.33
2023-04-25T09:41:08.038Z,1.32
2023-04-25T09:44:11.854Z,1.29
2023-04-25T09:47:15.957Z,1.39
2023-04-25T09:50:19.932Z,1.35
2023-04-25T09:53:30.082Z,1.60
2023-04-25T09:56:34.057Z,1.61
2023-04-25T09:59:37.928Z,1.61
2023-04-25T10:02:42.946Z,1.45
2023-04-25T10:05:47.121Z,1.32
2023-04-25T10:08:51.279Z,1.14
2023-04-25T10:11:56.498Z,1.10
2023-04-25T10:15:01.697Z,1.18
2023-04-25T10:18:05.724Z,1.22
2023-04-25T10:21:09.281Z,1.14
2023-04-25T10:24:13.300Z,1.18
2023-04-25T10:27:17.658Z,1.37
2023-04-25T10:30:21.441Z,1.00
2023-04-25T10:33:25.264Z,0.93
2023-04-25T10:36:29.031Z,0.95
2023-04-25T10:39:32.911Z,0.94
2023-04-25T10:42:37.253Z,0.80
2023-04-25T10:45:41.100Z,0.80
2023-04-25T10:48:44.774Z,0.84
2023-04-25T10:51:55.252Z,0.89
2023-04-25T10:54:59.642Z,0.82
2023-04-25T10:58:03.590Z,0.76
2023-04-25T11:01:07.810Z,0.86
2023-04-25T11:04:11.984Z,0.91
2023-04-25T11:07:16.024Z,0.96
2023-04-25T11:10:19.703Z,1.09
2023-04-25T11:13:23.763Z,1.00
2023-04-25T11:16:28.711Z,0.86
2023-04-25T11:19:32.926Z,0.96
2023-04-25T11:22:36.707Z,0.98
2023-04-25T11:25:40.859Z,1.11
2023-04-25T11:28:45.088Z,1.01
2023-04-25T11:31:49.560Z,0.80
2023-04-25T11:34:54.251Z,0.86
2023-04-25T11:37:58.250Z,0.66
2023-04-25T11:41:02.682Z,0.82
2023-04-25T11:44:09.730Z,0.79
2023-04-25T11:47:14.900Z,0.86
2023-04-25T11:50:18.772Z,0.85
2023-04-25T11:53:23.137Z,0.92
2023-04-25T11:56:26.759Z,1.05
2023-04-25T11:59:30.638Z,0.93
2023-04-25T12:02:34.824Z,0.86
2023-04-25T12:05:39.191Z,0.90
2023-04-25T12:08:42.928Z,0.97
2023-04-25T12:11:47.153Z,1.16
2023-04-25T12:14:52.815Z,0.94
2023-04-25T12:17:57.029Z,1.18
2023-04-25T12:21:00.780Z,1.01
2023-04-25T12:24:09.012Z,1.21
2023-04-25T12:27:13.236Z,1.10
2023-04-25T12:30:17.475Z,1.07
2023-04-25T12:33:21.558Z,1.01
2023-04-25T12:36:25.814Z,1.04
2023-04-25T12:39:29.722Z,1.19
2023-04-25T12:42:33.415Z,1.04
2023-04-25T12:45:37.594Z,1.20
2023-04-25T12:48:41.652Z,1.18
2023-04-25T14:55:36.515Z,1.47
2023-04-25T15:04:20.908Z,1.45
2023-04-25T15:07:24.898Z,1.62
2023-04-25T15:10:28.676Z,1.47
2023-04-25T15:13:34.880Z,1.47
2023-04-25T15:16:39.076Z,1.43
2023-04-25T15:19:43.256Z,1.47
2023-04-25T15:22:47.555Z,1.47
2023-04-25T15:25:51.660Z,1.38
2023-04-25T15:28:55.685Z,1.60
2023-04-25T15:31:59.777Z,1.62
2023-04-25T15:35:03.906Z,1.52
2023-04-25T15:38:07.946Z,1.31
2023-04-25T15:41:12.014Z,1.65
2023-04-25T15:44:18.498Z,1.50
2023-04-25T15:47:22.715Z,1.33
2023-04-25T15:50:26.755Z,1.47
2023-04-25T15:53:30.586Z,1.53
2023-04-25T15:56:34.670Z,1.45
2023-04-25T15:59:38.909Z,1.61
2023-04-25T16:02:43.328Z,1.52
2023-04-25T16:05:47.537Z,1.62
2023-04-25T16:08:51.523Z,1.58
2023-04-25T16:11:55.443Z,1.49
2023-04-25T16:14:59.546Z,1.59
2023-04-25T16:18:03.812Z,1.54
2023-04-25T16:21:07.923Z,1.56
2023-04-25T16:24:11.740Z,1.60
2023-04-25T16:27:15.922Z,1.45
2023-04-25T16:30:20.111Z,1.69
2023-04-25T16:33:25.452Z,1.64
2023-04-25T16:36:29.688Z,1.43
2023-04-25T16:39:33.709Z,1.43
2023-04-25T16:42:37.839Z,1.42
2023-04-25T16:45:42.086Z,1.47
2023-04-25T16:48:46.098Z,1.52
2023-04-25T16:51:50.362Z,1.72
2023-04-25T16:54:54.543Z,1.80
2023-04-25T16:57:59.588Z,1.47
2023-04-25T17:01:05.086Z,1.64
2023-04-25T17:04:09.226Z,1.83
2023-04-25T17:07:13.120Z,1.63
2023-04-25T17:10:17.060Z,1.41
2023-04-25T17:13:21.335Z,1.48
2023-04-25T17:16:34.460Z,1.50
2023-04-25T17:19:38.274Z,1.48
2023-04-25T17:22:42.430Z,1.43
2023-04-25T17:25:46.333Z,1.49
2023-04-25T17:28:52.277Z,1.51
2023-04-25T17:31:56.622Z,1.54
2023-04-25T17:35:02.410Z,1.57
2023-04-25T17:38:06.366Z,5.11
2023-04-25T17:41:10.065Z,1.73
2023-04-25T17:44:15.329Z,1.64
2023-04-25T17:47:22.179Z,1.58
2023-04-25T17:50:26.462Z,1.99
2023-04-25T17:53:32.759Z,1.74
2023-04-25T17:56:36.618Z,1.79
2023-04-25T17:59:41.674Z,1.75
2023-04-25T18:02:46.037Z,1.81
2023-04-25T18:05:49.539Z,1.74
2023-04-25T18:08:53.903Z,1.84
2023-04-25T18:11:58.036Z,2.01
2023-04-25T18:15:01.948Z,1.93
2023-04-25T18:18:05.826Z,1.75
2023-04-25T18:21:11.123Z,1.69
2023-04-25T18:24:15.281Z,1.77
2023-04-25T18:27:18.991Z,1.93
2023-04-25T18:30:22.784Z,1.75
2023-04-25T18:33:26.736Z,1.80
2023-04-25T18:36:30.624Z,1.93
2023-04-25T18:39:34.688Z,1.89
2023-04-25T18:42:38.600Z,1.97
2023-04-25T18:45:42.622Z,2.05
2023-04-25T18:48:46.537Z,2.20
2023-04-25T18:51:50.558Z,2.15
2023-04-25T18:54:54.376Z,2.38
2023-04-25T18:57:58.211Z,2.51
2023-04-25T19:01:02.352Z,2.30
2023-04-25T19:04:06.908Z,2.44
2023-04-25T19:07:12.378Z,2.47
2023-04-25T19:10:16.531Z,2.58
2023-04-25T19:13:20.113Z,2.31
2023-04-25T19:16:24.588Z,2.22
2023-04-25T19:19:29.019Z,2.23
2023-04-25T19:22:33.044Z,2.20
2023-04-25T19:25:36.833Z,2.21
2023-04-25T19:28:42.017Z,2.42
2023-04-25T19:31:46.126Z,2.60
2023-04-25T19:34:50.213Z,2.34
2023-04-25T19:37:54.236Z,2.61
2023-04-25T19:40:58.149Z,2.64
2023-04-25T19:44:01.985Z,2.53
2023-04-25T19:47:07.510Z,2.93
2023-04-25T19:50:11.554Z,3.19
2023-04-25T19:53:15.544Z,3.82
2023-04-25T19:56:21.581Z,4.36
2023-04-25T19:59:25.589Z,4.48
2023-04-25T20:02:29.769Z,4.56
2023-04-25T20:05:34.907Z,4.35
2023-04-25T20:08:38.780Z,4.52
2023-04-25T20:11:42.989Z,4.65
2023-04-25T20:14:47.094Z,4.70
2023-04-25T20:17:51.351Z,4.74
2023-04-25T20:20:55.247Z,4.63
2023-04-25T20:23:59.612Z,4.37
2023-04-25T20:27:03.158Z,4.09
2023-04-25T20:30:10.384Z,4.08
2023-04-25T20:33:14.777Z,3.95
2023-04-25T20:36:20.747Z,4.31
2023-04-25T20:39:25.921Z,4.16
2023-04-25T20:42:30.854Z,4.41
2023-04-25T20:45:41.353Z,4.24
2023-04-25T20:48:45.204Z,4.07
2023-04-25T20:51:49.045Z,4.14
2023-04-25T20:54:53.201Z,4.14
2023-04-25T20:57:57.351Z,3.95
2023-04-25T21:01:01.208Z,4.03
2023-04-25T21:04:08.582Z,3.97
2023-04-25T21:07:12.488Z,3.94
2023-04-25T21:10:18.382Z,4.02
2023-04-25T21:13:22.970Z,4.21
2023-04-25T21:16:26.954Z,4.13
2023-04-25T21:19:30.920Z,4.12
2023-04-25T21:22:34.847Z,4.11
2023-04-25T21:25:43.304Z,4.35
2023-04-25T21:28:51.431Z,4.23
2023-04-25T21:31:55.212Z,4.28
2023-04-25T21:34:59.265Z,4.59
2023-04-25T21:38:05.486Z,4.70
2023-04-25T21:41:09.521Z,4.61
2023-04-25T21:44:14.813Z,4.50
2023-04-25T21:47:20.492Z,4.88
2023-04-25T21:50:24.453Z,4.33
2023-04-25T21:53:28.468Z,5.07
2023-04-25T21:56:32.344Z,4.78
2023-04-25T21:59:36.471Z,4.64
2023-04-25T22:02:40.619Z,4.97
2023-04-25T22:05:44.474Z,4.71
2023-04-25T22:08:48.318Z,4.84
2023-04-25T22:11:52.363Z,4.77
2023-04-25T22:14:58.543Z,4.73
2023-04-25T22:18:02.368Z,4.50
2023-04-25T22:24:28.393Z,4.79
2023-04-25T22:27:32.464Z,4.34
2023-04-25T22:30:36.327Z,4.55
2023-04-25T22:33:40.047Z,4.93
2023-04-25T22:36:44.245Z,4.38
2023-04-25T22:39:48.522Z,4.52
2023-04-25T22:42:52.871Z,4.30
2023-04-25T22:45:56.926Z,4.04
2023-04-25T22:49:01.884Z,4.09
2023-04-25T22:52:07.542Z,4.29
2023-04-25T22:55:11.560Z,4.23
2023-04-25T22:58:15.509Z,4.36
2023-04-25T23:01:19.712Z,4.24
2023-04-25T23:04:23.807Z,4.12
2023-04-25T23:07:28.157Z,4.24
2023-04-25T23:10:32.346Z,3.97
2023-04-25T23:13:38.561Z,3.82
2023-04-25T23:16:42.627Z,3.95
2023-04-25T23:19:46.459Z,4.14
2023-04-25T23:22:50.560Z,4.14
2023-04-25T23:25:54.868Z,4.04
2023-04-25T23:32:27.098Z,4.02
2023-04-25T23:35:31.310Z,3.89
2023-04-25T23:38:35.322Z,4.29
2023-04-25T23:41:39.358Z,3.95
2023-04-25T23:44:43.268Z,3.93
2023-04-25T23:47:47.408Z,4.16
2023-04-25T23:50:51.702Z,4.13
2023-04-25T23:53:55.532Z,3.86
2023-04-25T23:56:59.228Z,4.07
